Disclaimer

Please do not use the information listed here in-flight or in-navigation, as they are not provided to us by the airports but are provided by volunteers, so they might be outdated.

Search


Regions


Airport information page

Radio informations:
Tower (TWR) - 122.7 MHz
INFO - 126.2 MHz

Airport informations:
Latitude: 37° 19' 31.13" N
Longitude: 049° 36' 20.94" E
Elevation: -40 feet - -12 meters
Operating hours: Remarks
Operating agency: Civil government, landing fees and diplomatic clearance may be required
Timezone: UTC+3:30
Fuel: JP-4, Wide cut turbine fuel MIL Spec T-5624

Jet A1, without icing nhibitor.

100/130 MIL Spec, low lead, aviation gasoline (BLUE)

Runway information:
09/27 - 9571 x 148 feet< - >2917 x 45 meters

Recent METARs:
OIGG 210000Z 00000KT 7000 SCT015 BKN080 10/10 Q1014
OIGG 210000Z 00000KT 7000 SCT015 BKN080 10/10 Q1014
OIGG 210100Z 00000KT 8000 SCT015 BKN080 11/10 Q1014

Airport on the map: